createdAt,value
2023-05-08T00:00:16.393Z,98454.31
2023-05-08T00:02:19.507Z,98451.81
2023-05-08T00:04:22.706Z,98453.63
2023-05-08T00:06:27.091Z,98450.16
2023-05-08T00:08:30.177Z,98456.25
2023-05-08T00:10:33.343Z,98454.63
2023-05-08T00:12:36.623Z,98451.13
2023-05-08T00:14:39.696Z,98455.44
2023-05-08T00:16:44.201Z,98451.00
2023-05-08T00:18:47.773Z,98456.41
2023-05-08T00:20:50.851Z,98451.25
2023-05-08T00:22:53.896Z,98452.38
2023-05-08T00:24:57.014Z,98457.66
2023-05-08T00:27:00.063Z,98456.66
2023-05-08T00:29:05.016Z,98462.66
2023-05-08T00:31:09.174Z,98458.34
2023-05-08T00:33:13.652Z,98456.66
2023-05-08T00:35:16.712Z,98463.59
2023-05-08T00:37:19.766Z,98461.94
2023-05-08T00:39:22.993Z,98469.00
2023-05-08T00:41:26.268Z,98467.31
2023-05-08T00:43:29.489Z,98462.06
2023-05-08T00:45:39.194Z,98460.28
2023-05-08T00:47:42.426Z,98460.41
2023-05-08T00:49:46.948Z,98464.25
2023-05-08T00:51:52.548Z,98460.09
2023-05-08T00:53:55.695Z,98463.72
2023-05-08T00:55:58.921Z,98462.03
2023-05-08T00:58:02.159Z,98462.03
2023-05-08T01:00:06.192Z,98466.34
2023-05-08T01:02:09.829Z,98463.72
2023-05-08T01:04:12.908Z,98468.25
2023-05-08T01:06:17.333Z,98464.66
2023-05-08T01:08:20.416Z,98462.03
2023-05-08T01:10:24.387Z,98470.75
2023-05-08T01:12:32.087Z,98470.63
2023-05-08T01:14:43.393Z,98471.63
2023-05-08T01:16:49.781Z,98473.38
2023-05-08T01:19:03.785Z,98475.19
2023-05-08T01:21:13.322Z,98473.53
2023-05-08T01:23:50.781Z,98466.75
2023-05-08T01:26:30.887Z,98473.78
2023-05-08T01:28:53.656Z,98466.88
2023-05-08T01:31:09.763Z,98466.16
2023-05-08T01:33:19.796Z,98470.59
2023-05-08T01:35:27.644Z,98473.09
2023-05-08T01:37:35.422Z,98475.72
2023-05-08T01:39:45.356Z,98473.91
2023-05-08T01:42:02.052Z,98478.34
2023-05-08T01:44:13.627Z,98472.28
2023-05-08T01:46:21.148Z,98481.94
2023-05-08T01:48:29.602Z,98480.31
2023-05-08T01:50:37.058Z,98490.72
2023-05-08T01:52:50.837Z,98490.72
2023-05-08T01:54:58.769Z,98489.97
2023-05-08T01:57:02.971Z,98494.41
2023-05-08T01:59:06.707Z,98496.09
2023-05-08T02:01:10.089Z,98498.88
2023-05-08T02:03:15.012Z,98507.59
2023-05-08T02:05:20.272Z,98510.22
2023-05-08T02:07:24.228Z,98504.00
2023-05-08T02:09:28.290Z,98504.00
2023-05-08T02:11:33.506Z,98503.16
2023-05-08T02:13:37.030Z,98500.66
2023-05-08T02:15:40.972Z,98511.91
2023-05-08T02:17:45.115Z,98498.00
2023-05-08T02:19:48.723Z,98511.19
2023-05-08T02:21:53.262Z,98513.81
2023-05-08T02:23:57.625Z,98508.53
2023-05-08T02:26:01.589Z,98509.41
2023-05-08T02:28:05.652Z,98504.97
2023-05-08T02:30:10.518Z,98510.22
2023-05-08T02:32:15.577Z,98505.78
2023-05-08T02:34:19.417Z,98514.53
2023-05-08T02:36:23.355Z,98511.91
2023-05-08T02:38:28.328Z,98511.91
2023-05-08T02:40:32.579Z,98515.50
2023-05-08T02:42:36.007Z,98516.44
2023-05-08T02:44:39.125Z,98513.81
2023-05-08T02:46:47.732Z,98520.75
2023-05-08T02:48:58.087Z,98514.66
2023-05-08T02:51:06.354Z,98508.53
2023-05-08T02:53:12.623Z,98520.06
2023-05-08T02:55:27.522Z,98516.56
2023-05-08T02:57:37.586Z,98521.72
2023-05-08T02:59:45.460Z,98522.56
2023-05-08T03:01:53.308Z,98518.25
2023-05-08T03:04:01.718Z,98519.09
2023-05-08T03:06:11.341Z,98513.94
2023-05-08T03:08:17.182Z,98512.44
2023-05-08T03:10:23.407Z,98508.81
2023-05-08T03:12:29.356Z,98507.16
2023-05-08T03:14:33.643Z,98506.31
2023-05-08T03:16:39.788Z,98503.81
2023-05-08T03:18:44.571Z,98499.53
2023-05-08T03:20:52.522Z,98501.44
2023-05-08T03:22:57.089Z,98497.16
2023-05-08T03:25:01.237Z,98504.19
2023-05-08T03:27:06.035Z,98512.94
2023-05-08T03:29:09.187Z,98504.06
2023-05-08T03:31:12.649Z,98507.09
2023-05-08T03:33:16.261Z,98501.81
2023-05-08T03:35:19.850Z,98512.34
2023-05-08T03:37:23.004Z,98506.25
2023-05-08T03:39:26.513Z,98510.44
2023-05-08T03:41:29.827Z,98511.25
2023-05-08T03:43:34.582Z,98509.47
2023-05-08T03:45:38.874Z,98502.41
2023-05-08T03:47:44.311Z,98510.44
2023-05-08T03:49:48.961Z,98511.41
2023-05-08T03:51:54.594Z,98508.19
2023-05-08T03:53:57.870Z,98507.38
2023-05-08T03:56:01.884Z,98517.03
2023-05-08T03:58:11.976Z,98509.16
2023-05-08T04:00:23.542Z,98512.78
2023-05-08T04:02:31.132Z,98513.72
2023-05-08T04:04:39.838Z,98510.41
2023-05-08T04:06:50.535Z,98515.53
2023-05-08T04:09:05.923Z,98518.03
2023-05-08T04:11:17.413Z,98515.28
2023-05-08T04:13:25.525Z,98520.53
2023-05-08T04:15:31.404Z,98517.03
2023-05-08T04:17:39.012Z,98528.31
2023-05-08T04:19:47.603Z,98520.66
2023-05-08T04:21:55.642Z,98535.22
2023-05-08T04:23:59.584Z,98533.41
2023-05-08T04:26:05.709Z,98536.03
2023-05-08T04:28:09.193Z,98532.47
2023-05-08T04:30:14.541Z,98536.91
2023-05-08T04:32:19.724Z,98542.03
2023-05-08T04:34:22.931Z,98534.25
2023-05-08T04:36:29.440Z,98537.47
2023-05-08T04:38:32.930Z,98547.19
2023-05-08T04:40:36.127Z,98542.59
2023-05-08T04:42:42.888Z,98544.41
2023-05-08T04:44:47.264Z,98549.56
2023-05-08T04:46:51.125Z,98545.25
2023-05-08T04:48:55.878Z,98548.69
2023-05-08T04:50:59.085Z,98559.22
2023-05-08T04:53:02.282Z,98558.16
2023-05-08T04:55:05.907Z,98561.59
2023-05-08T04:57:11.589Z,98556.34
2023-05-08T04:59:16.102Z,98562.06
2023-05-08T05:01:20.054Z,98566.63
2023-05-08T05:03:23.424Z,98565.66
2023-05-08T05:05:27.984Z,98568.16
2023-05-08T05:07:31.157Z,98575.13
2023-05-08T05:09:36.868Z,98573.44
2023-05-08T05:11:40.687Z,98570.78
2023-05-08T05:13:43.990Z,98576.75
2023-05-08T05:15:47.607Z,98577.63
2023-05-08T05:17:51.989Z,98579.13
2023-05-08T05:19:55.203Z,98580.69
2023-05-08T05:22:02.311Z,98578.75
2023-05-08T05:24:07.473Z,98583.06
2023-05-08T05:26:10.534Z,98579.59
2023-05-08T05:28:13.714Z,98587.50
2023-05-08T05:30:17.481Z,98580.31
2023-05-08T05:32:20.783Z,98587.25
2023-05-08T05:34:24.095Z,98587.38
2023-05-08T05:36:27.204Z,98584.47
2023-05-08T05:38:31.816Z,98590.31
2023-05-08T05:40:35.011Z,98585.75
2023-05-08T05:42:38.146Z,98597.69
2023-05-08T05:44:41.250Z,98591.31
2023-05-08T05:46:44.697Z,98597.19
2023-05-08T05:48:48.359Z,98588.28
2023-05-08T05:50:51.526Z,98589.84
2023-05-08T05:52:54.695Z,98585.41
2023-05-08T05:54:59.191Z,98593.03
2023-05-08T05:57:02.423Z,98592.09
2023-05-08T05:59:06.360Z,98594.59
2023-05-08T06:01:09.575Z,98598.91
2023-05-08T06:03:12.840Z,98592.78
2023-05-08T06:05:16.211Z,98597.78
2023-05-08T06:07:21.081Z,98600.28
2023-05-08T06:09:24.185Z,98597.53
2023-05-08T06:11:29.416Z,98605.16
2023-05-08T06:13:32.891Z,98592.72
2023-05-08T06:15:36.942Z,98599.38
2023-05-08T06:17:40.227Z,98599.13
2023-05-08T06:19:43.419Z,98604.38
2023-05-08T06:21:46.437Z,98604.25
2023-05-08T06:23:49.777Z,98605.81
2023-05-08T06:25:52.978Z,98595.94
2023-05-08T06:27:57.488Z,98610.53
2023-05-08T06:30:00.660Z,98608.50
2023-05-08T06:32:03.905Z,98608.94
2023-05-08T06:34:07.098Z,98615.63
2023-05-08T06:36:10.693Z,98611.16
2023-05-08T06:38:13.896Z,98605.34
2023-05-08T06:40:19.495Z,98607.84
2023-05-08T06:42:22.598Z,98614.66
2023-05-08T06:44:28.354Z,98607.56
2023-05-08T06:46:31.585Z,98609.94
2023-05-08T06:48:34.839Z,98605.94
2023-05-08T06:50:39.370Z,98616.09
2023-05-08T06:52:42.711Z,98608.50
2023-05-08T06:54:45.913Z,98608.88
2023-05-08T06:56:49.115Z,98609.59
2023-05-08T06:59:01.052Z,98607.41
2023-05-08T07:01:12.800Z,98612.41
2023-05-08T07:03:16.223Z,98610.03
2023-05-08T07:05:19.979Z,98605.31
2023-05-08T07:07:23.711Z,98607.28
2023-05-08T07:09:26.928Z,98613.41
2023-05-08T07:11:30.132Z,98612.00
2023-05-08T07:13:33.440Z,98613.41
2023-05-08T07:15:36.782Z,98610.91
2023-05-08T07:17:41.848Z,98609.50
2023-05-08T07:19:45.307Z,98618.00
2023-05-08T07:21:48.926Z,98617.47
2023-05-08T07:23:53.841Z,98613.44
2023-05-08T07:25:57.389Z,98619.19
2023-05-08T07:28:01.486Z,98621.69
2023-05-08T07:30:05.540Z,98627.09
2023-05-08T07:32:09.701Z,98621.09
2023-05-08T07:34:14.228Z,98620.28
2023-05-08T07:36:17.497Z,98618.47
2023-05-08T07:38:20.620Z,98623.16
2023-05-08T07:40:23.958Z,98623.56
2023-05-08T07:42:27.091Z,98616.88
2023-05-08T07:44:40.331Z,98624.66
2023-05-08T07:46:46.820Z,98621.63
2023-05-08T07:48:50.032Z,98626.53
2023-05-08T07:50:54.540Z,98630.69
2023-05-08T07:52:57.626Z,98629.88
2023-05-08T07:55:00.733Z,98635.16
2023-05-08T07:57:03.845Z,98636.66
2023-05-08T07:59:06.958Z,98635.72
2023-05-08T08:01:10.132Z,98631.53
2023-05-08T08:03:13.433Z,98633.47
2023-05-08T08:05:16.960Z,98630.97
2023-05-08T08:07:21.882Z,98638.75
2023-05-08T08:09:25.246Z,98640.97
2023-05-08T08:11:28.588Z,98630.66
2023-05-08T08:13:32.764Z,98639.13
2023-05-08T08:15:36.168Z,98635.69
2023-05-08T08:17:39.734Z,98640.66
2023-05-08T08:19:42.943Z,98639.00
2023-05-08T08:21:46.581Z,98635.84
2023-05-08T08:23:51.118Z,98631.50
2023-05-08T08:25:54.914Z,98637.03
2023-05-08T08:27:58.509Z,98634.41
2023-05-08T08:30:15.927Z,98642.06
2023-05-08T08:32:21.026Z,98647.06
2023-05-08T08:34:24.432Z,98651.53
2023-05-08T08:36:28.143Z,98644.41
2023-05-08T08:38:31.307Z,98645.13
2023-05-08T08:40:40.348Z,98653.78
2023-05-08T08:42:43.605Z,98651.00
2023-05-08T08:44:46.885Z,98649.03
2023-05-08T08:46:52.888Z,98652.22
2023-05-08T08:48:57.582Z,98645.72
2023-05-08T08:51:04.395Z,98645.44
2023-05-08T08:53:11.717Z,98647.13
2023-05-08T08:55:18.070Z,98648.50
2023-05-08T08:57:22.927Z,98648.34
2023-05-08T08:59:27.518Z,98651.41
2023-05-08T09:01:31.669Z,98654.34
2023-05-08T09:03:35.090Z,98657.25
2023-05-08T09:05:38.634Z,98661.31
2023-05-08T09:07:43.802Z,98658.25
2023-05-08T09:09:48.738Z,98651.00
2023-05-08T09:11:53.464Z,98650.72
2023-05-08T09:13:58.559Z,98650.97
2023-05-08T09:16:01.974Z,98650.69
2023-05-08T09:18:05.432Z,98657.81
2023-05-08T09:20:09.774Z,98650.16
2023-05-08T09:22:13.491Z,98656.53
2023-05-08T09:24:16.602Z,98646.53
2023-05-08T09:26:28.323Z,98647.38
2023-05-08T09:28:31.346Z,98654.19
2023-05-08T09:30:49.822Z,98648.91
2023-05-08T09:33:02.683Z,98661.25
2023-05-08T09:35:07.177Z,98650.13
2023-05-08T09:37:14.276Z,98652.63
2023-05-08T09:39:23.701Z,98656.66
2023-05-08T09:41:26.780Z,98661.09
2023-05-08T09:43:29.810Z,98666.53
2023-05-08T09:45:35.458Z,98657.03
2023-05-08T09:47:39.691Z,98653.28
2023-05-08T09:49:57.767Z,98662.44
2023-05-08T09:52:01.008Z,98663.91
2023-05-08T09:54:06.530Z,98666.66
2023-05-08T09:56:09.908Z,98655.78
2023-05-08T09:58:13.074Z,98660.41
2023-05-08T10:00:17.157Z,98659.59
2023-05-08T10:02:21.771Z,98665.69
2023-05-08T10:04:34.245Z,98654.69
2023-05-08T10:06:37.367Z,98659.41
2023-05-08T10:08:40.477Z,98662.81
2023-05-08T10:10:43.617Z,98654.13
2023-05-08T10:12:46.813Z,98650.50
2023-05-08T10:14:50.274Z,98652.72
2023-05-08T10:16:54.497Z,98648.81
2023-05-08T10:19:03.014Z,98653.44
2023-05-08T10:21:08.185Z,98656.72
2023-05-08T10:23:15.101Z,98655.31
2023-05-08T10:25:19.098Z,98658.69
2023-05-08T10:27:28.082Z,98648.25
2023-05-08T10:29:35.106Z,98652.28
2023-05-08T10:31:40.820Z,98651.75
2023-05-08T10:33:46.455Z,98645.31
2023-05-08T10:35:50.963Z,98651.16
2023-05-08T10:37:55.254Z,98641.03
2023-05-08T10:39:59.475Z,98642.97
2023-05-08T10:42:03.022Z,98645.31
2023-05-08T10:44:06.774Z,98642.81
2023-05-08T10:46:14.612Z,98648.19
2023-05-08T10:48:24.779Z,98646.34
2023-05-08T10:50:38.673Z,98643.84
2023-05-08T10:52:54.969Z,98635.19
2023-05-08T10:55:17.582Z,98643.00
2023-05-08T10:57:21.501Z,98645.66
2023-05-08T10:59:24.586Z,98641.75
2023-05-08T11:01:28.342Z,98645.44
2023-05-08T11:03:33.305Z,98647.81
2023-05-08T11:05:46.990Z,98643.38
2023-05-08T11:07:58.272Z,98648.50
2023-05-08T11:10:08.555Z,98644.03
2023-05-08T11:12:21.933Z,98637.78
2023-05-08T11:14:25.504Z,98644.84
2023-05-08T11:17:05.939Z,98641.25
2023-05-08T11:19:18.557Z,98645.72
2023-05-08T11:21:22.621Z,98644.41
2023-05-08T11:23:28.090Z,98648.97
2023-05-08T11:25:43.511Z,98644.25
2023-05-08T11:28:10.598Z,98643.81
2023-05-08T11:30:36.030Z,98650.06
2023-05-08T11:33:14.049Z,98633.38
2023-05-08T11:35:57.781Z,98636.53
2023-05-08T11:38:16.281Z,98627.78
2023-05-08T11:40:49.789Z,98631.91
2023-05-08T11:42:53.036Z,98632.78
2023-05-08T11:45:05.796Z,98621.16
2023-05-08T11:47:09.938Z,98621.44
2023-05-08T11:49:15.509Z,98624.09
2023-05-08T11:51:19.742Z,98622.25
2023-05-08T11:53:22.874Z,98621.16
2023-05-08T11:55:26.178Z,98624.19
2023-05-08T11:57:31.647Z,98620.47
2023-05-08T11:59:37.071Z,98614.47
2023-05-08T12:01:40.366Z,98608.59
2023-05-08T12:03:43.615Z,98619.97
2023-05-08T12:05:46.948Z,98622.88
2023-05-08T12:07:50.138Z,98616.03
2023-05-08T12:09:53.354Z,98616.44
2023-05-08T12:11:58.639Z,98613.38
2023-05-08T12:14:03.111Z,98621.03
2023-05-08T12:16:06.801Z,98617.94
2023-05-08T12:18:09.944Z,98617.34
2023-05-08T12:20:15.168Z,98624.13
2023-05-08T12:22:18.709Z,98621.56
2023-05-08T12:24:24.347Z,98634.28
2023-05-08T12:26:28.255Z,98630.53
2023-05-08T12:28:32.520Z,98619.63
2023-05-08T12:30:37.359Z,98620.16
2023-05-08T12:32:41.970Z,98616.38
2023-05-08T12:34:45.213Z,98619.72
2023-05-08T12:36:48.299Z,98625.97
2023-05-08T12:38:52.157Z,98621.69
2023-05-08T12:40:56.134Z,98619.41
2023-05-08T12:43:02.217Z,98624.78
2023-05-08T12:45:06.320Z,98628.50
2023-05-08T12:47:11.219Z,98619.75
2023-05-08T12:49:14.370Z,98619.47
2023-05-08T12:51:17.522Z,98628.81
2023-05-08T12:53:22.488Z,98622.25
2023-05-08T12:55:29.377Z,98626.59
2023-05-08T12:57:32.554Z,98624.47
2023-05-08T12:59:35.843Z,98617.53
2023-05-08T13:01:39.053Z,98627.09
2023-05-08T13:03:43.577Z,98621.53
2023-05-08T13:05:46.774Z,98624.88
2023-05-08T13:07:50.424Z,98611.97
2023-05-08T13:10:02.211Z,98614.78
2023-05-08T13:12:06.721Z,98601.97
2023-05-08T13:14:09.909Z,98608.59
2023-05-08T13:16:13.100Z,98606.03
2023-05-08T13:18:17.141Z,98608.84
2023-05-08T13:20:24.161Z,98602.53
2023-05-08T13:22:27.319Z,98601.94
2023-05-08T13:24:30.433Z,98598.75
2023-05-08T13:26:33.489Z,98594.97
2023-05-08T13:28:36.444Z,98594.44
2023-05-08T13:30:39.965Z,98593.13
2023-05-08T13:32:43.050Z,98584.88
2023-05-08T13:34:50.175Z,98583.25
2023-05-08T13:36:56.066Z,98590.03
2023-05-08T13:38:59.087Z,98583.25
2023-05-08T13:41:02.234Z,98583.25
2023-05-08T13:43:05.330Z,98578.31
2023-05-08T13:45:10.677Z,98578.91
2023-05-08T13:47:13.863Z,98580.19
2023-05-08T13:49:19.199Z,98569.63
2023-05-08T13:51:22.231Z,98578.53
2023-05-08T13:53:26.718Z,98570.81
2023-05-08T13:55:29.785Z,98568.00
2023-05-08T13:57:32.921Z,98560.47
2023-05-08T13:59:35.993Z,98564.59
2023-05-08T14:01:39.294Z,98570.22
2023-05-08T14:03:42.419Z,98558.16
2023-05-08T14:05:45.543Z,98561.81
2023-05-08T14:07:48.653Z,98565.44
2023-05-08T14:09:53.401Z,98563.28
2023-05-08T14:11:58.565Z,98566.59
2023-05-08T14:14:01.698Z,98561.72
2023-05-08T14:16:08.178Z,98563.94
2023-05-08T14:18:11.339Z,98556.16
2023-05-08T14:20:14.640Z,98561.44
2023-05-08T14:22:17.809Z,98567.41
2023-05-08T14:24:20.816Z,98556.41
2023-05-08T14:26:25.221Z,98551.63
2023-05-08T14:28:28.367Z,98554.63
2023-05-08T14:30:31.477Z,98553.31
2023-05-08T14:32:34.573Z,98547.56
2023-05-08T14:34:37.844Z,98547.97
2023-05-08T14:36:41.439Z,98555.75
2023-05-08T14:38:44.480Z,98551.16
2023-05-08T14:40:50.810Z,98548.88
2023-05-08T14:42:55.406Z,98548.59
2023-05-08T14:44:58.448Z,98555.28
2023-05-08T14:47:01.599Z,98554.06
2023-05-08T14:49:05.279Z,98553.63
2023-05-08T14:51:08.421Z,98551.13
2023-05-08T14:53:11.631Z,98551.53
2023-05-08T14:55:20.645Z,98558.03
2023-05-08T14:57:24.151Z,98556.69
2023-05-08T14:59:28.758Z,98553.44
2023-05-08T15:01:31.866Z,98554.47
2023-05-08T15:03:35.138Z,98552.06
2023-05-08T15:05:40.944Z,98557.06
2023-05-08T15:07:44.131Z,98553.94
2023-05-08T15:09:47.915Z,98559.09
2023-05-08T15:11:51.197Z,98553.09
2023-05-08T15:13:54.264Z,98552.28
2023-05-08T15:15:59.235Z,98561.75
2023-05-08T15:18:02.384Z,98545.53
2023-05-08T15:20:06.334Z,98547.50
2023-05-08T15:22:09.457Z,98546.97
2023-05-08T15:24:12.601Z,98542.19
2023-05-08T15:26:15.848Z,98548.88
2023-05-08T15:28:18.951Z,98553.72
2023-05-08T15:30:22.792Z,98554.22
2023-05-08T15:32:27.453Z,98548.47
2023-05-08T15:34:32.797Z,98540.38
2023-05-08T15:36:36.401Z,98544.84
2023-05-08T15:38:39.435Z,98544.69
2023-05-08T15:40:42.568Z,98552.41
2023-05-08T15:42:45.676Z,98538.63
2023-05-08T15:46:54.752Z,98540.56
2023-05-08T15:49:00.499Z,98538.56
2023-05-08T15:51:05.075Z,98541.06
2023-05-08T15:53:08.228Z,98538.28
2023-05-08T15:55:11.891Z,98543.88
2023-05-08T15:57:15.273Z,98542.19
2023-05-08T15:59:18.392Z,98538.72
2023-05-08T16:01:21.942Z,98540.25
2023-05-08T16:03:25.405Z,98542.19
2023-05-08T16:05:29.997Z,98543.88
2023-05-08T16:07:33.063Z,98544.84
2023-05-08T16:09:36.143Z,98535.94
2023-05-08T16:11:39.226Z,98543.56
2023-05-08T16:13:42.403Z,98542.59
2023-05-08T16:15:45.649Z,98537.28
2023-05-08T16:17:48.987Z,98543.41
2023-05-08T16:19:52.086Z,98543.06
2023-05-08T16:21:56.563Z,98536.38
2023-05-08T16:23:59.841Z,98535.47
2023-05-08T16:26:03.126Z,98541.22
2023-05-08T16:28:06.718Z,98547.66
2023-05-08T16:30:11.098Z,98549.91
2023-05-08T16:32:14.209Z,98540.94
2023-05-08T16:34:17.323Z,98544.56
2023-05-08T16:36:20.462Z,98547.47
2023-05-08T16:38:25.108Z,98545.97
2023-05-08T16:40:28.200Z,98551.44
2023-05-08T16:42:31.287Z,98550.56
2023-05-08T16:44:34.702Z,98541.66
2023-05-08T16:46:38.003Z,98544.31
2023-05-08T16:48:42.232Z,98552.03
2023-05-08T16:50:45.340Z,98548.66
2023-05-08T16:52:48.550Z,98542.19
2023-05-08T16:54:53.040Z,98530.34
2023-05-08T16:56:56.231Z,98543.22
2023-05-08T16:59:01.347Z,98533.47
2023-05-08T17:01:04.474Z,98534.56
2023-05-08T17:03:07.687Z,98529.44
2023-05-08T17:05:11.495Z,98526.25
2023-05-08T17:07:15.118Z,98525.59
2023-05-08T17:09:18.567Z,98529.50
2023-05-08T17:11:23.066Z,98542.34
2023-05-08T17:13:26.298Z,98544.31
2023-05-08T17:15:29.424Z,98539.84
2023-05-08T17:17:32.641Z,98543.31
2023-05-08T17:19:36.219Z,98536.09
2023-05-08T17:21:39.264Z,98541.09
2023-05-08T17:23:42.541Z,98548.31
2023-05-08T17:25:45.678Z,98542.88
2023-05-08T17:27:50.197Z,98559.47
2023-05-08T17:29:53.376Z,98548.03
2023-05-08T17:31:56.493Z,98551.66
2023-05-08T17:33:59.806Z,98553.31
2023-05-08T17:36:03.291Z,98557.94
2023-05-08T17:38:06.318Z,98555.59
2023-05-08T17:40:11.008Z,98554.75
2023-05-08T17:42:14.144Z,98567.84
2023-05-08T17:44:18.870Z,98570.34
2023-05-08T17:46:22.707Z,98577.44
2023-05-08T17:48:26.031Z,98567.84
2023-05-08T17:50:29.250Z,98566.31
2023-05-08T17:52:32.389Z,98572.88
2023-05-08T17:54:35.630Z,98569.53
2023-05-08T17:56:38.835Z,98574.97
2023-05-08T17:58:42.069Z,98581.09
2023-05-08T18:00:46.594Z,98573.59
2023-05-08T18:02:49.650Z,98576.53
2023-05-08T18:04:52.927Z,98576.81
2023-05-08T18:06:56.156Z,98576.16
2023-05-08T18:08:59.225Z,98572.13
2023-05-08T18:11:02.360Z,98573.94
2023-05-08T18:13:05.550Z,98567.97
2023-05-08T18:15:09.598Z,98573.56
2023-05-08T18:17:16.729Z,98573.00
2023-05-08T18:19:19.934Z,98576.78
2023-05-08T18:21:23.164Z,98573.69
2023-05-08T18:23:26.311Z,98577.47
2023-05-08T18:25:29.424Z,98573.13
2023-05-08T18:27:34.351Z,98574.13
2023-05-08T18:29:37.547Z,98570.94
2023-05-08T18:31:40.714Z,98578.31
2023-05-08T18:33:45.191Z,98575.00
2023-05-08T18:35:48.348Z,98574.44
2023-05-08T18:37:51.624Z,98570.97
2023-05-08T18:39:54.813Z,98577.22
2023-05-08T18:41:58.011Z,98571.25
2023-05-08T18:44:04.992Z,98572.50
2023-05-08T18:46:12.409Z,98571.81
2023-05-08T18:48:15.719Z,98575.59
2023-05-08T18:50:20.262Z,98582.69
2023-05-08T18:52:23.391Z,98576.72
2023-05-08T18:54:27.089Z,98582.28
2023-05-08T18:56:30.746Z,98579.63
2023-05-08T18:58:33.985Z,98580.59
2023-05-08T19:00:37.167Z,98586.16
2023-05-08T19:02:41.104Z,98574.25
2023-05-08T19:04:44.409Z,98572.69
2023-05-08T19:06:49.027Z,98574.53
2023-05-08T19:08:52.711Z,98573.25
2023-05-08T19:10:55.792Z,98575.38
2023-05-08T19:13:02.066Z,98570.38
2023-05-08T19:15:08.649Z,98578.44
2023-05-08T19:17:11.710Z,98581.22
2023-05-08T19:19:14.752Z,98572.56
2023-05-08T19:21:17.820Z,98579.00
2023-05-08T19:23:22.392Z,98578.44
2023-05-08T19:25:27.998Z,98583.00
2023-05-08T19:27:32.119Z,98570.38
2023-05-08T19:29:35.612Z,98584.56
2023-05-08T19:31:38.833Z,98575.38
2023-05-08T19:33:42.113Z,98584.41
2023-05-08T19:35:45.287Z,98584.50
2023-05-08T19:37:48.433Z,98582.88
2023-05-08T19:39:52.929Z,98578.53
2023-05-08T19:41:56.320Z,98583.00
2023-05-08T19:43:59.467Z,98578.69
2023-05-08T19:46:02.718Z,98586.88
2023-05-08T19:48:10.509Z,98585.34
2023-05-08T19:50:19.336Z,98578.56
2023-05-08T19:52:22.522Z,98579.09
2023-05-08T19:54:25.656Z,98576.75
2023-05-08T19:56:30.250Z,98580.47
2023-05-08T19:58:33.366Z,98574.50
2023-05-08T20:00:36.575Z,98574.78
2023-05-08T20:02:40.081Z,98575.06
2023-05-08T20:05:08.022Z,98576.28
2023-05-08T20:07:07.235Z,98578.50
2023-05-08T20:09:11.542Z,98576.16
2023-05-08T20:11:14.689Z,98588.66
2023-05-08T20:13:19.244Z,98584.34
2023-05-08T20:15:22.378Z,98584.47
2023-05-08T20:17:25.495Z,98586.44
2023-05-08T20:19:28.678Z,98584.06
2023-05-08T20:21:32.462Z,98589.59
2023-05-08T20:23:35.637Z,98581.81
2023-05-08T20:25:38.888Z,98581.13
2023-05-08T20:27:43.156Z,98582.91
2023-05-08T20:29:47.744Z,98592.78
2023-05-08T20:31:51.077Z,98587.78
2023-05-08T20:33:54.477Z,98586.94
2023-05-08T20:35:57.659Z,98585.53
2023-05-08T20:38:00.780Z,98581.34
2023-05-08T20:40:06.333Z,98580.09
2023-05-08T20:42:09.650Z,98575.38
2023-05-08T20:44:17.016Z,98570.63
2023-05-08T20:46:21.696Z,98572.91
2023-05-08T20:48:25.088Z,98570.72
2023-05-08T20:50:28.401Z,98569.28
2023-05-08T20:52:32.440Z,98569.41
2023-05-08T20:54:36.164Z,98566.91
2023-05-08T20:56:39.598Z,98566.91
2023-05-08T20:58:42.607Z,98571.50
2023-05-08T21:00:46.009Z,98563.84
2023-05-08T21:02:50.492Z,98566.63
2023-05-08T21:04:53.722Z,98567.59
2023-05-08T21:06:56.781Z,98566.75
2023-05-08T21:08:59.944Z,98562.19
2023-05-08T21:11:03.473Z,98559.69
2023-05-08T21:13:06.636Z,98552.72
2023-05-08T21:15:10.177Z,98560.63
2023-05-08T21:17:13.217Z,98558.84
2023-05-08T21:19:17.779Z,98563.25
2023-05-08T21:21:20.860Z,98556.47
2023-05-08T21:23:23.971Z,98557.31
2023-05-08T21:25:27.246Z,98563.13
2023-05-08T21:27:30.325Z,98554.13
2023-05-08T21:29:33.432Z,98557.59
2023-05-08T21:31:36.602Z,98554.13
2023-05-08T21:33:39.651Z,98557.72
2023-05-08T21:35:44.440Z,98549.94
2023-05-08T21:37:47.797Z,98549.13
2023-05-08T21:39:51.014Z,98551.63
2023-05-08T21:41:54.100Z,98545.66
2023-05-08T21:43:57.368Z,98546.50
2023-05-08T21:46:00.457Z,98547.44
2023-05-08T21:48:03.930Z,98545.94
2023-05-08T21:50:08.344Z,98548.69
2023-05-08T21:52:12.805Z,98546.88
2023-05-08T21:54:15.972Z,98541.88
2023-05-08T21:56:19.094Z,98535.94
2023-05-08T21:58:22.202Z,98542.00
2023-05-08T22:00:27.606Z,98547.81
2023-05-08T22:02:30.809Z,98536.84
2023-05-08T22:04:34.195Z,98537.25
2023-05-08T22:06:37.255Z,98539.75
2023-05-08T22:08:41.659Z,98538.31
2023-05-08T22:10:44.991Z,98535.25
2023-05-08T22:12:48.257Z,98538.28
2023-05-08T22:14:51.485Z,98541.03
2023-05-08T22:16:54.477Z,98542.84
2023-05-08T22:18:57.574Z,98543.81
2023-05-08T22:21:00.680Z,98539.63
2023-05-08T22:23:03.770Z,98540.16
2023-05-08T22:25:09.681Z,98539.44
2023-05-08T22:27:12.899Z,98538.75
2023-05-08T22:29:16.900Z,98547.63
2023-05-08T22:31:20.004Z,98544.97
2023-05-08T22:33:23.044Z,98543.28
2023-05-08T22:35:27.894Z,98544.84
2023-05-08T22:37:30.927Z,98544.84
2023-05-08T22:39:33.972Z,98542.22
2023-05-08T22:41:38.708Z,98547.63
2023-05-08T22:43:41.748Z,98535.41
2023-05-08T22:45:44.867Z,98546.91
2023-05-08T22:47:48.016Z,98543.28
2023-05-08T22:49:51.365Z,98539.84
2023-05-08T22:51:54.460Z,98538.03
2023-05-08T22:53:57.516Z,98538.16
2023-05-08T22:56:00.510Z,98538.28
2023-05-08T22:58:05.267Z,98539.78
2023-05-08T23:00:11.512Z,98534.78
2023-05-08T23:02:14.708Z,98533.09
2023-05-08T23:04:17.759Z,98524.25
2023-05-08T23:06:20.809Z,98520.66
2023-05-08T23:08:23.932Z,98515.41
2023-05-08T23:10:27.059Z,98518.16
2023-05-08T23:12:30.130Z,98508.59
2023-05-08T23:14:34.546Z,98507.03
2023-05-08T23:16:37.642Z,98501.78
2023-05-08T23:18:41.245Z,98500.13
2023-05-08T23:20:44.327Z,98490.53
2023-05-08T23:22:47.328Z,98490.53
2023-05-08T23:24:50.534Z,98480.84
2023-05-08T23:26:53.594Z,98487.91
2023-05-08T23:28:56.609Z,98479.06
2023-05-08T23:31:01.011Z,98475.00
2023-05-08T23:33:04.342Z,98478.59
2023-05-08T23:35:08.495Z,98476.91
2023-05-08T23:37:11.525Z,98472.59
2023-05-08T23:39:14.519Z,98470.91
2023-05-08T23:41:17.541Z,98467.34
2023-05-08T23:43:20.557Z,98462.66
2023-05-08T23:45:23.501Z,98460.03
2023-05-08T23:47:28.027Z,98459.22
2023-05-08T23:49:31.045Z,98454.31
2023-05-08T23:51:34.038Z,98456.25
2023-05-08T23:53:37.103Z,98451.81
2023-05-08T23:55:40.216Z,98461.50
2023-05-08T23:57:43.244Z,98462.59
2023-05-08T23:59:46.230Z,98461.91
